createdAt,value
2018-02-04T00:00:52.670Z,100642.50
2018-02-04T00:05:53.991Z,100651.57
2018-02-04T00:10:55.331Z,100661.47
2018-02-04T00:15:57.445Z,100672.23
2018-02-04T00:20:58.763Z,100675.66
2018-02-04T00:26:00.067Z,100673.50
2018-02-04T00:31:01.434Z,100686.40
2018-02-04T00:36:02.930Z,100692.02
2018-02-04T00:41:04.275Z,100694.59
2018-02-04T00:46:06.406Z,100704.48
2018-02-04T00:51:07.747Z,100708.35
2018-02-04T00:56:09.096Z,100714.81
2018-02-04T01:01:10.614Z,100716.54
2018-02-04T01:06:11.942Z,100723.86
2018-02-04T01:11:13.276Z,100726.86
2018-02-04T01:16:14.642Z,100738.47
2018-02-04T01:21:16.687Z,100740.65
2018-02-04T01:26:18.035Z,100752.68
2018-02-04T01:31:19.623Z,100748.37
2018-02-04T01:36:20.957Z,100757.84
2018-02-04T01:41:22.298Z,100754.39
2018-02-04T01:46:23.630Z,100760.42
2018-02-04T01:51:24.947Z,100766.88
2018-02-04T01:56:26.326Z,100772.05
2018-02-04T02:01:27.758Z,100770.74
2018-02-04T02:06:29.803Z,100779.78
2018-02-04T02:11:31.195Z,100781.50
2018-02-04T02:16:32.629Z,100781.09
2018-02-04T02:21:34.016Z,100781.11
2018-02-04T02:26:35.368Z,100783.25
2018-02-04T02:31:36.717Z,100791.00
2018-02-04T02:36:38.076Z,100790.55
2018-02-04T02:41:39.447Z,100798.30
2018-02-04T02:46:41.500Z,100797.88
2018-02-04T02:51:43.583Z,100812.08
2018-02-04T02:56:44.967Z,100815.08
2018-02-04T03:01:46.307Z,100823.67
2018-02-04T03:06:47.639Z,100835.73
2018-02-04T03:11:48.989Z,100841.32
2018-02-04T03:16:50.354Z,100839.61
2018-02-04T03:21:52.415Z,100852.94
2018-02-04T03:26:53.790Z,100863.67
2018-02-04T03:31:55.133Z,100874.08
2018-02-04T03:36:56.506Z,100876.19
2018-02-04T03:41:57.866Z,100884.39
2018-02-04T03:46:59.207Z,100900.74
2018-02-04T03:52:00.552Z,100915.36
2018-02-04T03:57:01.967Z,100923.12
2018-02-04T04:02:03.347Z,100926.98
2018-02-04T04:07:04.726Z,100934.33
2018-02-04T04:12:06.064Z,100946.84
2018-02-04T04:17:07.546Z,100950.22
2018-02-04T04:22:09.628Z,100955.37
2018-02-04T04:27:10.964Z,100952.78
2018-02-04T04:32:12.278Z,100962.27
2018-02-04T04:37:13.632Z,100963.16
2018-02-04T04:42:14.933Z,100974.83
2018-02-04T04:47:16.987Z,100973.55
2018-02-04T04:52:18.350Z,100985.17
2018-02-04T04:57:19.687Z,100987.34
2018-02-04T05:02:21.171Z,100994.23
2018-02-04T05:07:22.540Z,100994.22
2018-02-04T05:12:23.881Z,101009.28
2018-02-04T05:17:25.170Z,101001.06
2018-02-04T05:22:27.238Z,101010.98
2018-02-04T05:27:28.598Z,101019.61
2018-02-04T05:32:29.923Z,101027.78
2018-02-04T05:37:31.250Z,101025.66
2018-02-04T05:42:32.581Z,101040.30
2018-02-04T05:47:33.901Z,101042.04
2018-02-04T05:52:35.246Z,101047.64
2018-02-04T05:57:36.616Z,101062.22
2018-02-04T06:02:38.683Z,101069.55
2018-02-04T06:07:40.009Z,101074.25
2018-02-04T06:12:42.071Z,101080.31
2018-02-04T06:17:43.453Z,101092.36
2018-02-04T06:22:44.824Z,101100.93
2018-02-04T06:27:46.175Z,101114.67
2018-02-04T06:32:48.326Z,101134.00
2018-02-04T06:37:49.673Z,101148.55
2018-02-04T06:42:51.745Z,101155.73
2018-02-04T06:47:53.089Z,101167.75
2018-02-04T06:52:54.444Z,101182.33
2018-02-04T06:57:55.759Z,101184.82
2018-02-04T07:02:57.887Z,101194.66
2018-02-04T07:07:59.222Z,101214.13
2018-02-04T07:13:00.572Z,101219.50
2018-02-04T07:18:01.891Z,101239.75
2018-02-04T07:23:03.297Z,101241.84
2018-02-04T07:28:04.669Z,101253.53
2018-02-04T07:33:06.022Z,101263.89
2018-02-04T07:38:07.405Z,101273.02
2018-02-04T07:43:08.766Z,101285.27
2018-02-04T07:48:10.133Z,101292.33
2018-02-04T07:53:11.470Z,101301.80
2018-02-04T07:58:13.615Z,101305.98
2018-02-04T08:03:14.995Z,101327.23
2018-02-04T08:08:16.564Z,101325.42
2018-02-04T08:13:18.735Z,101340.24
2018-02-04T08:18:20.075Z,101356.52
2018-02-04T08:23:21.431Z,101366.85
2018-02-04T08:28:22.743Z,101373.72
2018-02-04T08:33:24.820Z,101381.20
2018-02-04T08:38:26.164Z,101392.34
2018-02-04T08:43:27.486Z,101402.96
2018-02-04T08:48:28.819Z,101411.28
2018-02-04T08:53:30.147Z,101425.62
2018-02-04T08:58:31.477Z,101441.22
2018-02-04T09:03:32.808Z,101451.30
2018-02-04T09:08:34.199Z,101461.60
2018-02-04T09:13:35.568Z,101463.47
2018-02-04T09:18:36.929Z,101467.11
2018-02-04T09:23:38.303Z,101470.91
2018-02-04T09:28:39.615Z,101475.88
2018-02-04T09:33:40.977Z,101490.33
2018-02-04T09:38:42.344Z,101487.41
2018-02-04T09:43:43.659Z,101498.16
2018-02-04T09:48:45.050Z,101500.88
2018-02-04T09:53:46.444Z,101506.34
2018-02-04T09:58:47.814Z,101511.87
2018-02-04T10:03:49.144Z,101517.58
2018-02-04T10:08:51.484Z,101521.98
2018-02-04T10:13:52.803Z,101528.69
2018-02-04T10:18:54.125Z,101543.30
2018-02-04T10:23:55.498Z,101547.42
2018-02-04T10:28:56.834Z,101548.34
2018-02-04T10:33:58.175Z,101553.98
2018-02-04T10:38:59.479Z,101556.70
2018-02-04T10:44:00.810Z,101567.14
2018-02-04T10:49:02.381Z,101569.50
2018-02-04T10:54:04.450Z,101575.00
2018-02-04T10:59:06.694Z,101583.17
2018-02-04T11:04:08.794Z,101593.58
2018-02-04T11:09:10.283Z,101602.25
2018-02-04T11:14:11.604Z,101600.11
2018-02-04T11:19:12.924Z,101613.94
2018-02-04T11:24:14.366Z,101605.41
2018-02-04T11:29:16.473Z,101614.03
2018-02-04T11:34:18.520Z,101610.73
2018-02-04T11:39:19.871Z,101616.61
2018-02-04T11:44:21.218Z,101625.54
2018-02-04T11:49:22.615Z,101627.28
2018-02-04T11:54:24.014Z,101632.86
2018-02-04T11:59:25.440Z,101648.53
2018-02-04T12:04:26.758Z,101648.54
2018-02-04T12:09:28.099Z,101652.39
2018-02-04T12:14:29.428Z,101656.17
2018-02-04T12:19:30.759Z,101663.87
2018-02-04T12:24:32.084Z,101663.45
2018-02-04T12:29:34.225Z,101661.72
2018-02-04T12:34:35.572Z,101667.65
2018-02-04T12:39:36.922Z,101671.27
2018-02-04T12:44:39.106Z,101667.80
2018-02-04T12:49:40.611Z,101677.66
2018-02-04T12:54:41.958Z,101681.34
2018-02-04T12:59:43.739Z,101681.90
2018-02-04T13:04:45.185Z,101691.47
2018-02-04T13:09:47.610Z,101691.98
2018-02-04T13:14:49.100Z,101694.12
2018-02-04T13:19:50.899Z,101706.25
2018-02-04T13:24:52.343Z,101704.06
2018-02-04T13:35:02.062Z,101699.90
2018-02-04T13:40:04.691Z,101704.16
2018-02-04T13:45:06.168Z,101700.63
2018-02-04T13:50:07.595Z,101712.23
2018-02-04T13:55:08.945Z,101717.56
2018-02-04T14:00:12.142Z,101730.89
2018-02-04T14:05:14.526Z,101733.84
2018-02-04T14:10:16.020Z,101739.84
2018-02-04T14:15:19.346Z,101726.53
2018-02-04T14:20:20.730Z,101742.11
2018-02-04T14:25:22.156Z,101748.58
2018-02-04T14:30:24.251Z,101749.76
2018-02-04T14:35:25.597Z,101752.33
2018-02-04T14:40:26.924Z,101768.36
2018-02-04T14:45:28.264Z,101774.44
2018-02-04T14:50:29.607Z,101782.84
2018-02-04T14:55:31.052Z,101787.25
2018-02-04T15:00:32.383Z,101785.53
2018-02-04T15:05:33.773Z,101787.92
2018-02-04T15:10:35.090Z,101813.20
2018-02-04T15:15:37.196Z,101812.98
2018-02-04T15:20:39.344Z,101809.95
2018-02-04T15:25:40.871Z,101825.22
2018-02-04T15:30:42.213Z,101824.30
2018-02-04T15:35:43.575Z,101833.93
2018-02-04T15:40:45.632Z,101834.66
2018-02-04T15:45:46.964Z,101847.15
2018-02-04T15:50:49.040Z,101856.55
2018-02-04T15:55:50.420Z,101854.34
2018-02-04T16:00:51.761Z,101862.61
2018-02-04T16:05:53.125Z,101861.70
2018-02-04T16:10:54.481Z,101874.13
2018-02-04T16:15:55.842Z,101881.50
2018-02-04T16:20:57.188Z,101889.82
2018-02-04T16:25:58.535Z,101882.05
2018-02-04T16:30:59.902Z,101893.09
2018-02-04T16:36:01.996Z,101892.70
2018-02-04T16:41:03.354Z,101907.31
2018-02-04T16:46:04.776Z,101903.18
2018-02-04T16:51:06.206Z,101871.08
2018-02-04T16:56:07.600Z,101908.23
2018-02-04T17:01:08.960Z,101917.87
2018-02-04T17:06:11.039Z,101924.27
2018-02-04T17:11:12.375Z,101932.56
2018-02-04T17:16:14.126Z,101942.73
2018-02-04T17:21:15.510Z,101948.75
2018-02-04T17:26:16.940Z,101959.08
2018-02-04T17:31:18.370Z,101945.53
2018-02-04T17:36:19.731Z,101965.45
2018-02-04T17:41:21.087Z,101978.52
2018-02-04T17:46:22.464Z,101975.86
2018-02-04T17:51:23.823Z,101980.55
2018-02-04T17:56:27.270Z,101985.73
2018-02-04T18:01:28.911Z,101993.78
2018-02-04T18:06:30.265Z,101998.66
2018-02-04T18:11:31.623Z,102002.41
2018-02-04T18:16:32.984Z,102003.47
2018-02-04T18:21:34.332Z,102011.72
2018-02-04T18:26:35.688Z,102012.72
2018-02-04T18:31:37.048Z,102029.91
2018-02-04T18:36:38.408Z,102046.25
2018-02-04T18:41:39.763Z,102049.14
2018-02-04T18:46:41.237Z,102053.20
2018-02-04T18:51:43.318Z,102060.08
2018-02-04T18:56:47.187Z,102061.73
2018-02-04T19:01:49.365Z,102068.45
2018-02-04T19:06:50.768Z,102069.18
2018-02-04T19:11:52.196Z,102076.64
2018-02-04T19:16:53.545Z,102080.38
2018-02-04T19:21:54.972Z,102086.48
2018-02-04T19:26:56.412Z,102088.08
2018-02-04T19:31:57.794Z,102088.59
2018-02-04T19:36:59.296Z,102095.19
2018-02-04T19:42:00.639Z,102088.19
2018-02-04T19:47:02.698Z,102101.93
2018-02-04T19:52:04.028Z,102103.11
2018-02-04T19:57:06.095Z,102111.31
2018-02-04T20:02:07.423Z,102111.67
2018-02-04T20:07:09.489Z,102117.89
2018-02-04T20:12:10.818Z,102124.74
2018-02-04T20:17:12.174Z,102132.58
2018-02-04T20:22:13.526Z,102131.55
2018-02-04T20:27:15.099Z,102134.02
2018-02-04T20:32:34.862Z,102130.00
2018-02-04T20:37:36.267Z,102140.73
2018-02-04T20:42:37.551Z,102151.98
2018-02-04T20:47:39.284Z,102149.83
2018-02-04T20:52:41.382Z,102154.89
2018-02-04T20:57:43.734Z,102155.75
2018-02-04T21:02:45.847Z,102163.92
2018-02-04T21:07:47.456Z,102173.59
2018-02-04T21:12:48.850Z,102169.86
2018-02-04T21:17:50.188Z,102176.22
2018-02-04T21:22:52.388Z,102189.80
2018-02-04T21:27:54.455Z,102195.55
2018-02-04T21:32:55.780Z,102205.14
2018-02-04T21:37:57.143Z,102213.34
2018-02-04T21:42:58.473Z,102212.03
2018-02-04T21:47:59.882Z,102208.16
2018-02-04T21:53:01.226Z,102209.69
2018-02-04T21:58:02.647Z,102211.91
2018-02-04T22:03:04.068Z,102215.79
2018-02-04T22:08:05.403Z,102217.77
2018-02-04T22:13:06.825Z,102225.47
2018-02-04T22:18:08.897Z,102228.95
2018-02-04T22:23:10.294Z,102231.47
2018-02-04T22:28:11.620Z,102240.36
2018-02-04T22:33:12.938Z,102245.04
2018-02-04T22:38:14.328Z,102248.56
2018-02-04T22:43:15.631Z,102259.69
2018-02-04T22:48:16.969Z,102254.23
2018-02-04T22:53:18.524Z,102253.03
2018-02-04T22:58:19.841Z,102253.03
2018-02-04T23:03:21.897Z,102265.48
2018-02-04T23:08:23.333Z,102265.30
2018-02-04T23:13:24.731Z,102260.87
2018-02-04T23:18:26.774Z,102273.23
2018-02-04T23:23:28.166Z,102279.84
2018-02-04T23:28:29.512Z,102275.80
2018-02-04T23:33:30.848Z,102279.18
2018-02-04T23:38:32.246Z,102280.01
2018-02-04T23:43:33.583Z,102284.63
2018-02-04T23:48:35.640Z,102277.56
2018-02-04T23:53:37.126Z,102276.81
2018-02-04T23:58:38.423Z,102277.91
